KIDA/IDA METAR and TAF weather

Enter ICAO airport designator
Station Type Date Time Source
KIDA METAR 2021/01/22 07:31 UTC NOAA

KIDA 220731Z AUTO 36005KT 4SM BR FEW012 OVC019 M04/M04 A2997 RMK AO2 SNB04E26 P0000 T10391044


Station Type Date Time Source
KIDA Decoded METAR 2021/01/22 07:31 UTC NOAA

IDAHO FALLS REGIONAL AIRPORT, ID, United States (KIDA) 43-31N 112-04W 1453M
Jan 22, 2021 - 02:31 AM EST / 2021.01.22 0731 UTC
Wind: from the N (360 degrees) at 6 MPH (5 KT):0
Visibility: 4 mile(s):0
Sky conditions: overcast
Weather: mist
Precipitation last hour: A trace
Temperature: 25.0 F (-3.9 C)
Windchill: 17 F (-8 C):1
Dew Point: 24.1 F (-4.4 C)
Relative Humidity: 96%
Pressure (altimeter): 29.97 in. Hg (1014 hPa)
ob: KIDA 220731Z AUTO 36005KT 4SM BR FEW012 OVC019 M04/M04 A2997 RMK AO2 SNB04E26 P0000 T10391044
cycle: 7

Station Type Date Time Source
KIDA TAF 2021/01/22 06:22 UTC NOAA

TAF KIDA 220520Z 2206/2306 36005KT 1SM -SN BR OVC011
FM220800 36005KT 3SM BR VCFG OVC010
TEMPO 2210/2214 1/2SM FG BKN005
FM221400 36006KT 1SM BR VCFG BKN009
FM221800 36006KT 3SM BR VCSH SCT010 BKN040
FM230100 36007KT 3SM BR VCSH SCT008 BKN015

Example: see airport list